Time,TemperatureF,DewpointF,PressureIn,WindDirection,WindDirectionDegrees,WindSpeedMPH,WindSpeedGustMPH,Humidity,HourlyPrecipIn,Conditions,Clouds,dailyrainin,SolarRadiationWatts/m^2,SoftwareType,DateUTC
2013-06-27 00:01:00,64.0,64.0,-100.00,ESE,112,3.0,6.0,100,0.00,,,0.02,0.000000,,2013-06-27 04:01:00,
2013-06-27 00:11:00,64.0,64.0,-100.00,ESE,112,3.0,6.0,100,0.00,,,0.02,0.000000,,2013-06-27 04:11:00,
2013-06-27 00:22:00,64.0,64.0,-100.00,ESE,112,3.0,6.0,100,0.00,,,0.02,0.000000,,2013-06-27 04:22:00,
2013-06-27 00:53:00,65.0,64.0,-100.00,SE,125,2.0,8.0,98,0.00,,,0.02,0.000000,,2013-06-27 04:53:00,
2013-06-27 01:02:00,65.0,64.0,-100.00,SE,125,2.0,8.0,98,0.00,,,0.02,0.000000,,2013-06-27 05:02:00,
2013-06-27 01:12:00,65.0,64.0,-100.00,SE,125,2.0,8.0,98,0.00,,,0.02,0.000000,,2013-06-27 05:12:00,
2013-06-27 01:22:00,65.0,64.0,-100.00,SE,125,2.0,8.0,98,0.00,,,0.02,0.000000,,2013-06-27 05:22:00,
2013-06-27 02:02:00,64.0,63.0,-100.00,SSE,152,2.0,6.0,97,0.00,,,0.02,0.000000,,2013-06-27 06:02:00,
2013-06-27 02:12:00,64.0,63.0,-100.00,SSE,152,2.0,6.0,97,0.00,,,0.02,0.000000,,2013-06-27 06:12:00,
2013-06-27 02:23:00,64.0,63.0,-100.00,SSE,152,2.0,6.0,97,0.00,,,0.02,0.000000,,2013-06-27 06:23:00,
2013-06-27 02:53:00,64.0,63.0,-100.00,SSE,151,2.0,5.0,98,0.00,,,0.01,0.000000,,2013-06-27 06:53:00,
2013-06-27 03:02:00,64.0,63.0,-100.00,SSE,151,2.0,5.0,98,0.00,,,0.01,0.000000,,2013-06-27 07:02:00,
2013-06-27 03:12:00,64.0,63.0,-100.00,SSE,151,2.0,5.0,98,0.00,,,0.01,0.000000,,2013-06-27 07:12:00,
2013-06-27 03:22:00,64.0,63.0,-100.00,SSE,151,2.0,5.0,98,0.00,,,0.01,0.000000,,2013-06-27 07:22:00,
2013-06-27 03:52:00,63.0,63.0,-100.00,SSE,162,2.0,4.0,99,0.00,,,0.01,0.000000,,2013-06-27 07:52:00,
2013-06-27 04:01:00,63.0,63.0,-100.00,SSE,162,2.0,4.0,99,0.00,,,0.01,0.000000,,2013-06-27 08:01:00,
2013-06-27 04:11:00,63.0,63.0,-100.00,SSE,162,2.0,4.0,99,0.00,,,0.01,0.000000,,2013-06-27 08:11:00,
2013-06-27 04:22:00,63.0,63.0,-100.00,SSE,162,2.0,4.0,99,0.00,,,0.01,0.000000,,2013-06-27 08:22:00,
2013-06-27 04:52:00,62.0,62.0,-100.00,SSW,200,2.0,4.0,99,0.00,,,0.01,0.000000,,2013-06-27 08:52:00,
2013-06-27 05:02:00,62.0,62.0,-100.00,SSW,200,2.0,4.0,99,0.00,,,0.01,0.000000,,2013-06-27 09:02:00,
2013-06-27 05:11:00,62.0,62.0,-100.00,SSW,200,2.0,4.0,99,0.00,,,0.01,0.000000,,2013-06-27 09:11:00,
2013-06-27 05:22:00,62.0,62.0,-100.00,SSW,200,2.0,4.0,99,0.00,,,0.01,0.000000,,2013-06-27 09:22:00,
2013-06-27 05:53:00,63.0,63.0,-100.00,ESE,113,1.0,6.0,99,0.00,,,0.01,2.000000,,2013-06-27 09:53:00,
2013-06-27 06:01:00,63.0,63.0,-100.00,ESE,113,1.0,6.0,99,0.00,,,0.01,2.000000,,2013-06-27 10:01:00,
2013-06-27 06:11:00,63.0,63.0,-100.00,ESE,113,1.0,6.0,99,0.00,,,0.01,2.000000,,2013-06-27 10:11:00,
2013-06-27 06:22:00,63.0,63.0,-100.00,ESE,113,1.0,6.0,99,0.00,,,0.01,2.000000,,2013-06-27 10:22:00,
2013-06-27 07:02:00,63.0,63.0,-100.00,ENE,66,2.0,4.0,99,0.00,,,0.01,33.000000,,2013-06-27 11:02:00,
2013-06-27 07:12:00,63.0,63.0,-100.00,ENE,66,2.0,4.0,99,0.00,,,0.01,33.000000,,2013-06-27 11:12:00,
2013-06-27 07:22:00,63.0,63.0,-100.00,ENE,66,2.0,4.0,99,0.00,,,0.01,33.000000,,2013-06-27 11:22:00,
2013-06-27 07:53:00,67.0,64.0,-100.00,ENE,64,2.0,5.0,90,0.00,,,0.01,127.000000,,2013-06-27 11:53:00,
2013-06-27 08:02:00,67.0,64.0,-100.00,ENE,64,2.0,5.0,90,0.00,,,0.01,127.000000,,2013-06-27 12:02:00,
2013-06-27 08:12:00,67.0,64.0,-100.00,ENE,64,2.0,5.0,90,0.00,,,0.01,127.000000,,2013-06-27 12:12:00,
2013-06-27 08:22:00,67.0,64.0,-100.00,ENE,64,2.0,5.0,90,0.00,,,0.01,127.000000,,2013-06-27 12:22:00,
2013-06-27 09:01:00,71.0,66.0,-100.00,East,98,3.0,5.0,83,0.00,,,0.01,223.000000,,2013-06-27 13:01:00,
2013-06-27 09:11:00,71.0,66.0,-100.00,East,98,3.0,5.0,83,0.00,,,0.01,223.000000,,2013-06-27 13:11:00,
2013-06-27 09:22:00,71.0,66.0,-100.00,East,98,3.0,5.0,83,0.00,,,0.01,223.000000,,2013-06-27 13:22:00,
2013-06-27 10:02:00,70.0,66.0,-100.00,ESE,109,3.0,9.0,87,0.00,,,0.00,231.000000,,2013-06-27 14:02:00,
2013-06-27 10:12:00,70.0,66.0,-100.00,ESE,109,3.0,9.0,87,0.00,,,0.00,231.000000,,2013-06-27 14:12:00,
2013-06-27 10:22:00,70.0,66.0,-100.00,ESE,109,3.0,9.0,87,0.00,,,0.00,231.000000,,2013-06-27 14:22:00,
2013-06-27 10:52:00,75.0,67.0,-100.00,ESE,115,4.0,8.0,75,0.00,,,0.00,439.000000,,2013-06-27 14:52:00,
2013-06-27 11:01:00,75.0,67.0,-100.00,ESE,115,4.0,8.0,75,0.00,,,0.00,439.000000,,2013-06-27 15:01:00,
2013-06-27 11:12:00,75.0,67.0,-100.00,ESE,115,4.0,8.0,75,0.00,,,0.00,439.000000,,2013-06-27 15:12:00,
2013-06-27 11:22:00,75.0,67.0,-100.00,ESE,115,4.0,8.0,75,0.00,,,0.00,439.000000,,2013-06-27 15:22:00,
2013-06-27 11:52:00,76.0,67.0,-100.00,East,101,4.0,12.0,73,0.00,,,0.00,718.000000,,2013-06-27 15:52:00,
2013-06-27 12:02:00,76.0,67.0,-100.00,East,101,4.0,12.0,73,0.00,,,0.00,718.000000,,2013-06-27 16:02:00,
2013-06-27 12:11:00,76.0,67.0,-100.00,East,101,4.0,12.0,73,0.00,,,0.00,718.000000,,2013-06-27 16:11:00,
2013-06-27 12:23:00,76.0,67.0,-100.00,East,101,4.0,12.0,73,0.00,,,0.00,718.000000,,2013-06-27 16:23:00,
2013-06-27 12:53:00,78.0,65.0,-100.00,ESE,111,3.0,8.0,65,0.00,,,0.00,594.000000,,2013-06-27 16:53:00,
2013-06-27 13:02:00,78.0,65.0,-100.00,ESE,111,3.0,8.0,65,0.00,,,0.00,594.000000,,2013-06-27 17:02:00,
2013-06-27 13:11:00,78.0,65.0,-100.00,ESE,111,3.0,8.0,65,0.00,,,0.00,594.000000,,2013-06-27 17:11:00,
2013-06-27 13:22:00,78.0,65.0,-100.00,ESE,111,3.0,8.0,65,0.00,,,0.00,594.000000,,2013-06-27 17:22:00,
2013-06-27 14:02:00,79.0,63.0,-100.00,WNW,301,2.0,7.0,58,0.00,,,0.00,364.000000,,2013-06-27 18:02:00,
2013-06-27 14:12:00,79.0,63.0,-100.00,WNW,301,2.0,7.0,58,0.00,,,0.00,364.000000,,2013-06-27 18:12:00,
2013-06-27 14:22:00,79.0,63.0,-100.00,WNW,301,2.0,7.0,58,0.00,,,0.00,364.000000,,2013-06-27 18:22:00,
2013-06-27 14:52:00,76.0,69.0,-100.00,East,93,2.0,4.0,78,0.00,,,0.00,247.000000,,2013-06-27 18:52:00,
2013-06-27 15:01:00,76.0,69.0,-100.00,East,93,2.0,4.0,78,0.00,,,0.00,247.000000,,2013-06-27 19:01:00,
2013-06-27 15:11:00,76.0,69.0,-100.00,East,93,2.0,4.0,78,0.00,,,0.00,247.000000,,2013-06-27 19:11:00,
2013-06-27 15:23:00,76.0,69.0,-100.00,East,93,2.0,4.0,78,0.00,,,0.00,247.000000,,2013-06-27 19:23:00,
2013-06-27 15:53:00,79.0,66.0,-100.00,NW,325,3.0,6.0,64,0.00,,,0.00,361.000000,,2013-06-27 19:53:00,
2013-06-27 16:02:00,79.0,66.0,-100.00,NW,325,3.0,6.0,64,0.00,,,0.00,361.000000,,2013-06-27 20:02:00,
2013-06-27 16:11:00,79.0,66.0,-100.00,NW,325,3.0,6.0,64,0.00,,,0.00,361.000000,,2013-06-27 20:11:00,
2013-06-27 16:22:00,79.0,66.0,-100.00,NW,325,3.0,6.0,64,0.00,,,0.00,361.000000,,2013-06-27 20:22:00,
2013-06-27 16:25:00,72.0,70.0,-100.00,SE,138,2.0,6.0,93,0.02,,,0.02,240.000000,,2013-06-27 20:25:00,
2013-06-27 17:06:00,72.0,70.0,-100.00,SE,138,2.0,6.0,93,0.02,,,0.02,240.000000,,2013-06-27 21:06:00,
2013-06-27 17:16:00,72.0,70.0,-100.00,SE,138,2.0,6.0,93,0.02,,,0.02,240.000000,,2013-06-27 21:16:00,
2013-06-27 17:25:00,76.0,70.0,-100.00,WNW,301,2.0,4.0,82,0.02,,,0.04,226.000000,,2013-06-27 21:25:00,
2013-06-27 17:57:00,76.0,70.0,-100.00,WNW,301,2.0,4.0,82,0.02,,,0.04,226.000000,,2013-06-27 21:57:00,
2013-06-27 18:07:00,76.0,70.0,-100.00,WNW,301,2.0,4.0,82,0.02,,,0.04,226.000000,,2013-06-27 22:07:00,
2013-06-27 18:16:00,76.0,70.0,-100.00,WNW,301,2.0,4.0,82,0.02,,,0.04,226.000000,,2013-06-27 22:16:00,
2013-06-27 19:07:00,74.0,71.0,-100.00,SE,135,0.0,3.0,89,0.00,,,0.04,207.000000,,2013-06-27 23:07:00,
2013-06-27 19:17:00,74.0,71.0,-100.00,SE,135,0.0,3.0,89,0.00,,,0.04,207.000000,,2013-06-27 23:17:00,
2013-06-27 19:25:00,70.0,69.0,-100.00,ESE,116,2.0,3.0,96,0.00,,,0.04,87.000000,,2013-06-27 23:25:00,
2013-06-27 19:59:00,70.0,69.0,-100.00,ESE,116,2.0,3.0,96,0.00,,,0.04,87.000000,,2013-06-27 23:59:00,
2013-06-27 20:07:00,70.0,69.0,-100.00,ESE,116,2.0,3.0,96,0.00,,,0.04,87.000000,,2013-06-28 00:07:00,
2013-06-27 20:16:00,70.0,69.0,-100.00,ESE,116,2.0,3.0,96,0.00,,,0.04,87.000000,,2013-06-28 00:16:00,
2013-06-27 20:25:00,67.0,67.0,-100.00,ENE,73,1.0,5.0,99,0.34,,,0.38,9.000000,,2013-06-28 00:25:00,
2013-06-27 20:56:00,67.0,67.0,-100.00,ENE,73,1.0,5.0,99,0.34,,,0.38,9.000000,,2013-06-28 00:56:00,
2013-06-27 21:09:00,67.0,67.0,-100.00,ENE,73,1.0,5.0,99,0.34,,,0.38,9.000000,,2013-06-28 01:09:00,
2013-06-27 21:15:00,67.0,67.0,-100.00,ENE,73,1.0,5.0,99,0.34,,,0.38,9.000000,,2013-06-28 01:15:00,
2013-06-27 21:25:00,66.0,66.0,-100.00,SSE,152,1.0,3.0,100,0.00,,,0.38,0.000000,,2013-06-28 01:25:00,
2013-06-27 22:08:00,66.0,66.0,-100.00,SSE,152,1.0,3.0,100,0.00,,,0.38,0.000000,,2013-06-28 02:08:00,
2013-06-27 22:18:00,66.0,66.0,-100.00,SSE,152,1.0,3.0,100,0.00,,,0.38,0.000000,,2013-06-28 02:18:00,
2013-06-27 22:25:00,65.0,65.0,-100.00,East,89,2.0,5.0,100,0.00,,,0.38,0.000000,,2013-06-28 02:25:00,
2013-06-27 22:58:00,65.0,65.0,-100.00,East,89,2.0,5.0,100,0.00,,,0.38,0.000000,,2013-06-28 02:58:00,
2013-06-27 23:07:00,65.0,65.0,-100.00,East,89,2.0,5.0,100,0.00,,,0.38,0.000000,,2013-06-28 03:07:00,
2013-06-27 23:57:00,64.0,63.0,-100.00,SE,125,3.0,6.0,98,0.00,,,0.38,0.000000,,2013-06-28 03:57:00,